createdAt,value
2018-10-07T00:00:58.280Z,79.62
2018-10-07T00:03:28.511Z,78.99
2018-10-07T00:05:58.713Z,79.22
2018-10-07T00:08:28.903Z,79.57
2018-10-07T00:10:59.122Z,79.38
2018-10-07T00:13:29.313Z,79.22
2018-10-07T00:15:59.513Z,79.17
2018-10-07T00:18:29.701Z,79.53
2018-10-07T00:20:59.947Z,79.32
2018-10-07T00:23:30.137Z,78.54
2018-10-07T00:26:00.313Z,78.65
2018-10-07T00:28:30.484Z,78.56
2018-10-07T00:31:00.680Z,78.50
2018-10-07T00:33:30.837Z,79.06
2018-10-07T00:36:01.088Z,79.21
2018-10-07T00:38:31.281Z,79.20
2018-10-07T00:41:01.520Z,79.45
2018-10-07T00:43:31.677Z,79.87
2018-10-07T00:46:01.850Z,79.92
2018-10-07T00:48:32.006Z,79.06
2018-10-07T00:51:02.193Z,78.74
2018-10-07T00:53:32.407Z,78.05
2018-10-07T00:56:02.642Z,78.94
2018-10-07T00:58:32.866Z,78.81
2018-10-07T01:01:03.087Z,78.10
2018-10-07T01:03:33.255Z,78.41
2018-10-07T01:06:03.431Z,78.61
2018-10-07T01:08:33.610Z,78.57
2018-10-07T01:11:03.891Z,78.61
2018-10-07T01:13:34.048Z,79.16
2018-10-07T01:16:04.292Z,79.16
2018-10-07T01:18:34.455Z,80.07
2018-10-07T01:21:04.680Z,80.59
2018-10-07T01:23:35.106Z,79.87
2018-10-07T01:26:05.336Z,80.35
2018-10-07T01:28:35.548Z,80.29
2018-10-07T01:31:05.884Z,80.47
2018-10-07T01:33:36.078Z,80.78
2018-10-07T01:36:06.318Z,80.60
2018-10-07T01:38:36.494Z,79.87
2018-10-07T01:41:06.773Z,80.02
2018-10-07T01:43:36.938Z,79.42
2018-10-07T01:46:07.222Z,78.99
2018-10-07T01:48:37.416Z,79.43
2018-10-07T01:51:07.715Z,79.14
2018-10-07T01:53:37.901Z,79.32
2018-10-07T01:56:08.206Z,79.69
2018-10-07T01:58:38.379Z,78.98
2018-10-07T02:01:08.665Z,79.66
2018-10-07T02:03:38.847Z,79.41
2018-10-07T02:06:09.126Z,79.48
2018-10-07T02:08:39.302Z,79.39
2018-10-07T02:11:09.499Z,79.53
2018-10-07T02:13:39.722Z,79.04
2018-10-07T02:16:09.927Z,78.41
2018-10-07T02:18:40.093Z,78.98
2018-10-07T02:21:10.306Z,78.99
2018-10-07T02:23:40.515Z,79.31
2018-10-07T02:26:10.740Z,78.72
2018-10-07T02:28:40.933Z,78.26
2018-10-07T02:31:11.161Z,78.46
2018-10-07T02:33:41.400Z,78.83
2018-10-07T02:36:11.608Z,79.15
2018-10-07T02:38:41.842Z,79.22
2018-10-07T02:41:12.006Z,79.71
2018-10-07T02:43:42.195Z,79.50
2018-10-07T02:46:12.389Z,80.17
2018-10-07T02:48:42.572Z,80.11
2018-10-07T02:51:13.263Z,79.64
2018-10-07T02:53:43.483Z,80.14
2018-10-07T02:56:13.725Z,81.12
2018-10-07T02:58:44.069Z,80.96
2018-10-07T03:01:14.275Z,80.79
2018-10-07T03:03:44.472Z,80.36
2018-10-07T03:06:14.666Z,81.03
2018-10-07T03:08:44.886Z,80.65
2018-10-07T03:11:15.087Z,80.80
2018-10-07T03:13:45.273Z,80.78
2018-10-07T03:16:15.531Z,81.17
2018-10-07T03:18:45.730Z,81.08
2018-10-07T03:21:15.935Z,81.04
2018-10-07T03:23:46.123Z,80.93
2018-10-07T03:26:16.303Z,80.40
2018-10-07T03:28:46.467Z,80.84
2018-10-07T03:31:16.656Z,80.92
2018-10-07T03:33:46.918Z,80.58
2018-10-07T03:36:17.122Z,80.64
2018-10-07T03:38:47.345Z,81.00
2018-10-07T03:41:17.612Z,80.51
2018-10-07T03:43:47.783Z,80.72
2018-10-07T03:46:17.972Z,80.31
2018-10-07T03:48:48.176Z,80.61
2018-10-07T03:51:18.408Z,80.39
2018-10-07T03:53:48.578Z,81.08
2018-10-07T03:56:18.790Z,79.66
2018-10-07T03:58:48.989Z,80.04
2018-10-07T04:01:19.212Z,80.49
2018-10-07T04:03:49.448Z,81.55
2018-10-07T04:06:19.636Z,81.10
2018-10-07T04:08:49.825Z,81.59
2018-10-07T04:11:20.046Z,81.75
2018-10-07T04:13:50.211Z,81.45
2018-10-07T04:16:20.463Z,82.04
2018-10-07T04:18:50.696Z,81.86
2018-10-07T04:21:20.924Z,81.18
2018-10-07T04:23:51.125Z,80.95
2018-10-07T04:26:21.350Z,80.71
2018-10-07T04:28:51.533Z,81.19
2018-10-07T04:31:21.742Z,81.44
2018-10-07T04:33:51.918Z,81.04
2018-10-07T04:36:22.178Z,81.43
2018-10-07T04:38:52.338Z,80.87
2018-10-07T04:41:22.551Z,81.28
2018-10-07T04:43:52.734Z,81.21
2018-10-07T04:46:23.026Z,80.74
2018-10-07T04:48:53.086Z,81.15
2018-10-07T04:51:23.288Z,81.45
2018-10-07T04:53:53.460Z,81.00
2018-10-07T04:56:23.676Z,82.29
2018-10-07T04:58:53.963Z,81.51
2018-10-07T05:01:24.256Z,82.01
2018-10-07T05:03:54.406Z,81.04
2018-10-07T05:06:28.199Z,80.53
2018-10-07T05:08:59.688Z,81.37
2018-10-07T05:11:30.749Z,82.01
2018-10-07T05:14:00.982Z,81.98
2018-10-07T05:16:38.454Z,81.13
2018-10-07T05:19:08.704Z,81.64
2018-10-07T05:21:38.909Z,81.82
2018-10-07T05:24:09.121Z,81.63
2018-10-07T05:26:39.318Z,82.80
2018-10-07T05:29:09.544Z,82.34
2018-10-07T05:31:39.774Z,82.16
2018-10-07T05:34:09.982Z,81.77
2018-10-07T05:36:40.208Z,81.74
2018-10-07T05:39:11.923Z,81.31
2018-10-07T05:41:42.314Z,81.88
2018-10-07T05:44:12.578Z,81.93
2018-10-07T05:46:42.784Z,81.26
2018-10-07T05:49:12.963Z,82.58
2018-10-07T05:51:43.212Z,81.60
2018-10-07T05:54:13.417Z,80.91
2018-10-07T05:56:43.629Z,81.36
2018-10-07T05:59:13.890Z,80.90
2018-10-07T06:01:45.675Z,81.08
2018-10-07T06:04:34.138Z,81.86
2018-10-07T06:07:05.087Z,81.57
2018-10-07T06:09:36.669Z,81.39
2018-10-07T06:12:07.212Z,81.69
2018-10-07T06:14:54.182Z,81.63
2018-10-07T06:17:24.346Z,82.02
2018-10-07T06:19:54.576Z,82.12
2018-10-07T06:22:25.128Z,82.14
2018-10-07T06:25:01.492Z,81.91
2018-10-07T06:27:31.744Z,81.62
2018-10-07T06:30:02.092Z,82.31
2018-10-07T06:32:32.156Z,82.26
2018-10-07T06:35:02.379Z,82.49
2018-10-07T06:37:32.608Z,82.56
2018-10-07T06:40:02.878Z,82.57
2018-10-07T06:42:33.080Z,82.72
2018-10-07T06:45:03.347Z,82.22
2018-10-07T06:47:33.598Z,83.16
2018-10-07T06:50:03.932Z,83.34
2018-10-07T06:52:34.104Z,83.03
2018-10-07T06:55:06.682Z,83.45
2018-10-07T06:57:37.048Z,83.19
2018-10-07T07:00:08.617Z,82.88
2018-10-07T07:02:38.949Z,82.22
2018-10-07T07:05:15.964Z,81.91
2018-10-07T07:07:46.157Z,81.11
2018-10-07T07:10:16.408Z,82.34
2018-10-07T07:12:46.664Z,82.00
2018-10-07T07:15:16.934Z,81.33
2018-10-07T07:17:47.172Z,81.68
2018-10-07T07:20:17.394Z,81.65
2018-10-07T07:22:47.611Z,81.40
2018-10-07T07:25:17.796Z,81.48
2018-10-07T07:27:48.068Z,81.60
2018-10-07T07:30:18.241Z,82.14
2018-10-07T07:32:48.537Z,81.87
2018-10-07T07:35:18.741Z,81.89
2018-10-07T07:37:49.256Z,82.09
2018-10-07T07:40:19.485Z,81.55
2018-10-07T07:42:49.708Z,81.32
2018-10-07T07:45:19.961Z,81.76
2018-10-07T07:47:50.225Z,81.67
2018-10-07T07:50:20.417Z,81.31
2018-10-07T07:52:50.914Z,80.96
2018-10-07T07:55:27.757Z,81.10
2018-10-07T07:57:58.019Z,80.97
2018-10-07T08:00:28.261Z,80.93
2018-10-07T08:02:58.639Z,80.47
2018-10-07T08:05:29.085Z,80.69
2018-10-07T08:07:59.289Z,80.75
2018-10-07T08:10:29.545Z,80.31
2018-10-07T08:12:59.780Z,79.92
2018-10-07T08:15:30.035Z,79.01
2018-10-07T08:18:00.292Z,79.47
2018-10-07T08:20:30.520Z,79.79
2018-10-07T08:23:00.720Z,78.89
2018-10-07T08:25:31.811Z,78.88
2018-10-07T08:28:01.998Z,78.57
2018-10-07T08:30:32.259Z,77.42
2018-10-07T08:33:02.511Z,77.00
2018-10-07T08:35:32.713Z,76.66
2018-10-07T08:38:03.075Z,76.72
2018-10-07T08:40:33.290Z,75.85
2018-10-07T08:43:03.589Z,75.07
2018-10-07T08:45:33.769Z,74.15
2018-10-07T08:48:04.026Z,74.77
2018-10-07T08:52:10.157Z,74.65
2018-10-07T08:54:40.470Z,74.03
2018-10-07T08:57:10.835Z,73.89
2018-10-07T08:59:41.124Z,73.54
2018-10-07T09:02:11.375Z,73.43
2018-10-07T09:04:41.654Z,72.50
2018-10-07T09:07:11.890Z,73.74
2018-10-07T09:09:42.145Z,72.73
2018-10-07T09:12:12.387Z,72.16
2018-10-07T09:14:42.641Z,73.65
2018-10-07T09:17:12.831Z,73.10
2018-10-07T09:19:43.135Z,72.75
2018-10-07T09:22:13.483Z,72.15
2018-10-07T09:24:43.740Z,73.73
2018-10-07T09:27:14.118Z,72.65
2018-10-07T09:29:44.954Z,72.18
2018-10-07T09:32:15.312Z,72.28
2018-10-07T09:34:45.485Z,71.33
2018-10-07T09:37:15.685Z,71.18
2018-10-07T09:39:45.986Z,71.63
2018-10-07T09:42:16.243Z,71.14
2018-10-07T09:44:46.459Z,69.81
2018-10-07T09:47:16.713Z,67.48
2018-10-07T09:49:46.977Z,67.02
2018-10-07T09:52:17.247Z,67.93
2018-10-07T09:54:47.547Z,67.99
2018-10-07T09:57:17.870Z,66.87
2018-10-07T09:59:48.113Z,66.76
2018-10-07T10:02:18.462Z,66.56
2018-10-07T10:04:48.705Z,66.91
2018-10-07T10:07:18.961Z,66.18
2018-10-07T10:09:49.215Z,65.73
2018-10-07T10:12:19.469Z,65.71
2018-10-07T10:14:49.799Z,65.34
2018-10-07T10:17:23.020Z,65.25
2018-10-07T10:20:01.435Z,66.43
2018-10-07T10:22:55.021Z,65.98
2018-10-07T10:25:32.067Z,66.28
2018-10-07T10:28:17.873Z,64.94
2018-10-07T10:31:24.779Z,66.24
2018-10-07T10:36:13.428Z,66.40
2018-10-07T10:38:57.010Z,64.61
2018-10-07T10:41:34.511Z,65.40
2018-10-07T10:44:16.680Z,63.52
2018-10-07T10:47:49.755Z,64.23
2018-10-07T10:50:45.332Z,65.36
2018-10-07T10:53:26.459Z,63.34
2018-10-07T10:56:22.460Z,64.41
2018-10-07T10:59:10.620Z,64.38
2018-10-07T11:02:01.764Z,64.40
2018-10-07T11:04:43.687Z,64.65
2018-10-07T11:09:27.956Z,64.07
2018-10-07T11:12:09.208Z,64.71
2018-10-07T11:15:59.298Z,64.11
2018-10-07T11:18:59.964Z,65.12
2018-10-07T11:22:19.930Z,64.38
2018-10-07T11:25:02.813Z,63.25
2018-10-07T11:28:44.257Z,63.54
2018-10-07T11:31:26.200Z,62.73
2018-10-07T11:34:14.111Z,62.49
2018-10-07T11:37:01.139Z,63.23
2018-10-07T11:40:13.229Z,62.43
2018-10-07T11:42:52.252Z,62.59
2018-10-07T11:45:31.475Z,63.80
2018-10-07T11:48:19.854Z,63.56
2018-10-07T11:51:35.409Z,62.45
2018-10-07T11:54:09.537Z,61.94
2018-10-07T11:56:40.138Z,61.75
2018-10-07T11:59:10.371Z,62.09
2018-10-07T12:01:40.696Z,62.64
2018-10-07T12:04:10.968Z,63.91
2018-10-07T12:06:41.243Z,62.47
2018-10-07T12:09:11.466Z,64.01
2018-10-07T12:11:41.633Z,64.12
2018-10-07T12:14:11.887Z,63.52
2018-10-07T12:16:42.215Z,62.54
2018-10-07T12:19:12.435Z,62.90
2018-10-07T12:21:42.692Z,62.75
2018-10-07T12:24:12.962Z,63.37
2018-10-07T12:26:43.262Z,62.64
2018-10-07T12:29:13.528Z,63.43
2018-10-07T12:31:43.798Z,62.87
2018-10-07T12:34:14.212Z,62.49
2018-10-07T12:36:44.591Z,62.34
2018-10-07T12:39:14.826Z,62.75
2018-10-07T12:41:45.082Z,61.66
2018-10-07T12:44:15.368Z,61.22
2018-10-07T12:46:45.601Z,62.14
2018-10-07T12:49:16.325Z,61.85
2018-10-07T12:51:46.536Z,60.66
2018-10-07T12:54:16.800Z,62.27
2018-10-07T12:56:47.022Z,62.33
2018-10-07T12:59:17.273Z,61.18
2018-10-07T13:01:47.582Z,60.11
2018-10-07T13:04:17.865Z,60.34
2018-10-07T13:06:48.127Z,59.26
2018-10-07T13:09:18.318Z,60.21
2018-10-07T13:11:48.568Z,58.96
2018-10-07T13:14:18.794Z,57.93
2018-10-07T13:16:49.033Z,59.42
2018-10-07T13:19:19.336Z,59.36
2018-10-07T13:21:49.613Z,58.44
2018-10-07T13:24:19.825Z,59.39
2018-10-07T13:26:50.136Z,58.67
2018-10-07T13:29:20.320Z,58.15
2018-10-07T13:31:50.565Z,58.27
2018-10-07T13:34:20.772Z,60.37
2018-10-07T13:36:51.010Z,61.01
2018-10-07T13:39:21.296Z,60.83
2018-10-07T13:41:51.519Z,61.77
2018-10-07T13:44:21.934Z,61.89
2018-10-07T13:46:52.120Z,61.35
2018-10-07T13:49:22.390Z,62.59
2018-10-07T13:51:52.726Z,61.76
2018-10-07T13:54:23.120Z,60.55
2018-10-07T13:56:53.398Z,61.74
2018-10-07T13:59:23.608Z,62.21
2018-10-07T14:01:53.917Z,62.59
2018-10-07T14:04:24.226Z,63.32
2018-10-07T14:06:54.429Z,63.63
2018-10-07T14:09:24.781Z,63.36
2018-10-07T14:11:54.984Z,64.17
2018-10-07T14:14:25.305Z,63.20
2018-10-07T14:16:55.518Z,62.85
2018-10-07T14:19:25.810Z,62.10
2018-10-07T14:21:56.042Z,61.05
2018-10-07T14:24:26.336Z,63.15
2018-10-07T14:26:56.510Z,63.06
2018-10-07T14:29:26.726Z,63.41
2018-10-07T14:31:57.014Z,63.58
2018-10-07T14:34:27.254Z,64.29
2018-10-07T14:36:57.508Z,62.24
2018-10-07T14:39:27.730Z,63.20
2018-10-07T14:41:57.944Z,62.84
2018-10-07T14:44:28.181Z,63.10
2018-10-07T14:46:58.341Z,62.77
2018-10-07T14:49:28.608Z,62.66
2018-10-07T14:51:58.870Z,62.36
2018-10-07T14:54:29.127Z,62.44
2018-10-07T14:56:59.468Z,64.03
2018-10-07T14:59:29.765Z,63.67
2018-10-07T15:02:00.006Z,63.56
2018-10-07T15:04:30.210Z,63.26
2018-10-07T15:07:00.409Z,64.79
2018-10-07T15:09:30.702Z,63.63
2018-10-07T15:12:00.952Z,64.64
2018-10-07T15:14:31.215Z,64.68
2018-10-07T15:17:01.522Z,65.17
2018-10-07T15:19:31.906Z,64.07
2018-10-07T15:22:02.136Z,64.89
2018-10-07T15:24:32.418Z,65.37
2018-10-07T15:27:02.651Z,64.86
2018-10-07T15:29:33.073Z,64.42
2018-10-07T15:32:03.371Z,64.26
2018-10-07T15:34:33.655Z,63.70
2018-10-07T15:37:04.077Z,64.18
2018-10-07T15:39:34.416Z,64.65
2018-10-07T15:42:04.660Z,63.81
2018-10-07T15:44:34.855Z,64.45
2018-10-07T15:47:05.517Z,64.03
2018-10-07T15:49:35.846Z,64.93
2018-10-07T15:52:06.212Z,65.49
2018-10-07T15:54:36.620Z,64.74
2018-10-07T15:57:07.001Z,65.14
2018-10-07T15:59:37.295Z,65.59
2018-10-07T16:02:07.571Z,65.66
2018-10-07T16:04:37.771Z,65.66
2018-10-07T16:07:07.953Z,66.88
2018-10-07T16:09:38.465Z,66.48
2018-10-07T16:12:08.980Z,65.68
2018-10-07T16:14:39.214Z,66.04
2018-10-07T16:17:09.494Z,65.88
2018-10-07T16:19:39.767Z,66.78
2018-10-07T16:22:10.004Z,67.34
2018-10-07T16:24:43.199Z,66.53
2018-10-07T16:27:13.508Z,66.50
2018-10-07T16:29:43.749Z,66.77
2018-10-07T16:32:14.138Z,65.89
2018-10-07T16:34:44.269Z,66.08
2018-10-07T16:37:14.505Z,66.35
2018-10-07T16:39:44.737Z,66.36
2018-10-07T16:42:15.027Z,66.31
2018-10-07T16:44:45.287Z,67.16
2018-10-07T16:47:15.519Z,66.93
2018-10-07T16:49:45.785Z,66.52
2018-10-07T16:52:15.990Z,66.80
2018-10-07T16:54:46.295Z,67.45
2018-10-07T16:57:16.499Z,66.94
2018-10-07T16:59:46.740Z,67.81
2018-10-07T17:02:16.913Z,68.29
2018-10-07T17:04:47.209Z,67.64
2018-10-07T17:07:17.365Z,68.21
2018-10-07T17:09:47.609Z,68.23
2018-10-07T17:12:17.859Z,68.68
2018-10-07T17:14:48.073Z,68.21
2018-10-07T17:17:18.279Z,69.73
2018-10-07T17:19:48.475Z,69.00
2018-10-07T17:22:18.729Z,70.15
2018-10-07T17:24:49.013Z,70.43
2018-10-07T17:27:19.215Z,70.30
2018-10-07T17:29:49.517Z,71.77
2018-10-07T17:32:19.806Z,71.21
2018-10-07T17:34:50.044Z,71.69
2018-10-07T17:37:20.297Z,71.43
2018-10-07T17:39:50.599Z,71.55
2018-10-07T17:42:20.812Z,72.28
2018-10-07T17:44:51.067Z,72.84
2018-10-07T17:47:21.311Z,73.49
2018-10-07T17:49:51.540Z,73.23
2018-10-07T17:52:21.790Z,73.32
2018-10-07T17:54:52.105Z,73.13
2018-10-07T17:57:22.295Z,73.89
2018-10-07T17:59:52.537Z,74.11
2018-10-07T18:02:22.759Z,74.63
2018-10-07T18:04:52.994Z,75.28
2018-10-07T18:07:23.409Z,75.33
2018-10-07T18:09:53.653Z,75.44
2018-10-07T18:12:24.051Z,75.82
2018-10-07T18:14:54.323Z,75.61
2018-10-07T18:17:24.601Z,75.72
2018-10-07T18:19:54.943Z,76.13
2018-10-07T18:22:25.195Z,76.34
2018-10-07T18:24:55.500Z,77.02
2018-10-07T18:27:25.656Z,77.21
2018-10-07T18:29:55.880Z,77.34
2018-10-07T18:32:26.101Z,77.84
2018-10-07T18:34:56.249Z,77.87
2018-10-07T18:37:26.483Z,78.31
2018-10-07T18:39:56.796Z,79.72
2018-10-07T18:42:26.946Z,78.59
2018-10-07T18:44:57.179Z,79.10
2018-10-07T18:47:27.418Z,79.45
2018-10-07T18:49:57.583Z,79.16
2018-10-07T18:52:28.943Z,79.44
2018-10-07T18:54:59.083Z,79.23
2018-10-07T18:57:29.203Z,79.04
2018-10-07T19:00:00.315Z,78.85
2018-10-07T19:02:30.723Z,80.04
2018-10-07T19:05:00.812Z,79.50
2018-10-07T19:07:31.012Z,78.91
2018-10-07T19:10:01.172Z,79.10
2018-10-07T19:12:31.439Z,79.34
2018-10-07T19:15:01.693Z,79.52
2018-10-07T19:17:31.802Z,80.04
2018-10-07T19:20:01.965Z,80.14
2018-10-07T19:22:32.262Z,79.06
2018-10-07T19:25:02.475Z,79.84
2018-10-07T19:27:32.627Z,80.02
2018-10-07T19:30:02.820Z,79.84
2018-10-07T19:32:32.976Z,80.14
2018-10-07T19:35:03.096Z,79.80
2018-10-07T19:37:33.369Z,79.70
2018-10-07T19:40:03.547Z,79.51
2018-10-07T19:42:33.736Z,78.87
2018-10-07T19:45:04.064Z,79.52
2018-10-07T19:47:34.326Z,80.01
2018-10-07T19:50:04.655Z,79.91
2018-10-07T19:52:34.904Z,79.49
2018-10-07T19:55:05.212Z,80.25
2018-10-07T19:57:35.457Z,81.00
2018-10-07T20:00:05.814Z,80.44
2018-10-07T20:02:35.994Z,81.06
2018-10-07T20:05:06.372Z,80.81
2018-10-07T20:07:36.617Z,80.51
2018-10-07T20:10:06.839Z,80.08
2018-10-07T20:12:37.023Z,80.36
2018-10-07T20:15:07.325Z,80.17
2018-10-07T20:17:37.520Z,80.43
2018-10-07T20:20:07.849Z,79.92
2018-10-07T20:22:38.029Z,80.00
2018-10-07T20:25:08.270Z,79.69
2018-10-07T20:27:38.506Z,80.07
2018-10-07T20:30:08.759Z,80.14
2018-10-07T20:32:38.960Z,80.20
2018-10-07T20:35:09.266Z,80.42
2018-10-07T20:37:39.503Z,80.30
2018-10-07T20:40:09.765Z,80.39
2018-10-07T20:42:39.921Z,80.19
2018-10-07T20:45:10.140Z,80.74
2018-10-07T20:47:40.368Z,80.51
2018-10-07T20:50:10.588Z,80.80
2018-10-07T20:52:40.811Z,81.02
2018-10-07T20:55:10.986Z,81.06
2018-10-07T20:57:41.210Z,81.06
2018-10-07T21:00:11.421Z,81.06
2018-10-07T21:02:41.652Z,80.68
2018-10-07T21:05:11.840Z,81.72
2018-10-07T21:07:42.034Z,82.59
2018-10-07T21:10:12.261Z,82.11
2018-10-07T21:12:49.019Z,82.13
2018-10-07T21:15:19.273Z,81.67
2018-10-07T21:17:49.571Z,81.65
2018-10-07T21:20:19.779Z,81.62
2018-10-07T21:22:50.025Z,81.66
2018-10-07T21:25:20.339Z,81.45
2018-10-07T21:27:50.577Z,81.00
2018-10-07T21:30:20.808Z,81.39
2018-10-07T21:32:50.978Z,81.93
2018-10-07T21:35:21.206Z,81.41
2018-10-07T21:37:51.393Z,81.43
2018-10-07T21:40:21.650Z,81.15
2018-10-07T21:42:51.849Z,81.96
2018-10-07T21:45:22.106Z,81.57
2018-10-07T21:47:52.277Z,82.32
2018-10-07T21:50:22.462Z,82.25
2018-10-07T21:52:52.689Z,81.83
2018-10-07T21:55:22.868Z,82.24
2018-10-07T21:57:53.043Z,82.76
2018-10-07T22:00:23.267Z,82.80
2018-10-07T22:02:53.430Z,82.72
2018-10-07T22:05:23.665Z,82.71
2018-10-07T22:07:53.873Z,82.70
2018-10-07T22:10:24.079Z,82.44
2018-10-07T22:12:54.253Z,82.93
2018-10-07T22:15:24.489Z,83.21
2018-10-07T22:17:54.661Z,82.17
2018-10-07T22:20:24.859Z,81.84
2018-10-07T22:22:55.049Z,82.11
2018-10-07T22:25:25.269Z,82.18
2018-10-07T22:27:55.463Z,81.88
2018-10-07T22:30:27.088Z,81.82
2018-10-07T22:32:57.271Z,82.01
2018-10-07T22:35:27.499Z,82.00
2018-10-07T22:37:57.712Z,82.31
2018-10-07T22:40:27.873Z,82.96
2018-10-07T22:42:58.099Z,82.59
2018-10-07T22:45:28.295Z,82.49
2018-10-07T22:47:58.459Z,82.51
2018-10-07T22:50:28.640Z,81.95
2018-10-07T22:52:58.844Z,82.06
2018-10-07T22:55:29.011Z,82.44
2018-10-07T22:57:59.181Z,82.41
2018-10-07T23:00:29.389Z,82.76
2018-10-07T23:02:59.527Z,83.09
2018-10-07T23:05:29.701Z,82.24
2018-10-07T23:07:59.894Z,81.81
2018-10-07T23:10:30.059Z,82.33
2018-10-07T23:13:00.307Z,83.13
2018-10-07T23:15:30.463Z,83.36
2018-10-07T23:18:00.658Z,83.35
2018-10-07T23:20:30.845Z,82.51
2018-10-07T23:23:01.079Z,83.25
2018-10-07T23:25:31.285Z,83.91
2018-10-07T23:28:01.475Z,83.49
2018-10-07T23:30:31.693Z,82.97
2018-10-07T23:33:01.884Z,82.76
2018-10-07T23:35:32.067Z,83.74
2018-10-07T23:38:02.250Z,84.16
2018-10-07T23:40:32.446Z,82.75
2018-10-07T23:43:02.620Z,82.78
2018-10-07T23:45:32.814Z,82.49
2018-10-07T23:48:02.960Z,82.67
2018-10-07T23:50:33.090Z,83.95
2018-10-07T23:53:03.292Z,82.75
2018-10-07T23:55:33.470Z,83.29
2018-10-07T23:58:03.660Z,82.92
